Time;durP1;ratioP1;P1;durP2;ratioP2;P2;SDS_P1;SDS_P2;PMS_P1;PMS_P2;Temp;Humidity;BMP_temperature;BMP_pressure;BME280_temperature;BME280_humidity;BME280_pressure;Samples;Min_cycle;Max_cycle;Signal;HPM_P1;HPM_P2
2022/05/21 00:00:33;;;;;;;;;9.67;9.00;;;;;17.95;100.00;102056.06;5054182;28;45492;-77
2022/05/21 00:02:59;;;;;;;;;11.00;8.00;;;;;17.93;100.00;102047.19;5055657;28;45157;-76
2022/05/21 00:05:26;;;;;;;;;11.00;10.33;;;;;17.91;100.00;102054.31;5049109;28;46664;-77
2022/05/21 00:07:52;;;;;;;;;10.00;9.00;;;;;17.91;100.00;102059.66;5046844;28;45578;-78
2022/05/21 00:10:19;;;;;;;;;16.00;10.00;;;;;17.89;100.00;102056.06;5052109;28;45562;-77
2022/05/21 00:12:44;;;;;;;;;16.33;13.67;;;;;17.87;100.00;102053.41;5056431;28;45482;-76
2022/05/21 00:15:12;;;;;;;;;16.33;11.00;;;;;17.85;100.00;102054.31;5049957;28;46362;-75
2022/05/21 00:17:38;;;;;;;;;15.67;13.67;;;;;17.83;100.00;102048.94;5056379;28;45503;-76
2022/05/21 00:20:04;;;;;;;;;10.00;7.00;;;;;17.80;100.00;102055.19;5050000;28;50465;-76
2022/05/21 00:22:29;;;;;;;;;11.00;10.00;;;;;17.78;100.00;102051.63;5055244;28;45404;-78
2022/05/21 00:24:55;;;;;;;;;6.00;5.33;;;;;17.79;100.00;102058.75;5028640;28;46083;-76
2022/05/21 00:27:20;;;;;;;;;8.33;7.00;;;;;17.75;100.00;102056.97;5053082;28;45632;-78
2022/05/21 00:29:45;;;;;;;;;4.33;4.33;;;;;17.75;100.00;102059.66;5051870;28;47134;-76
2022/05/21 00:32:11;;;;;;;;;9.33;6.00;;;;;17.74;100.00;102065.00;5055797;28;55404;-76
2022/05/21 00:34:36;;;;;;;;;6.67;5.33;;;;;17.70;100.00;102058.72;5054143;28;61881;-77
2022/05/21 00:37:03;;;;;;;;;6.67;5.33;;;;;17.72;100.00;102061.38;5053048;28;45716;-77
2022/05/21 00:39:28;;;;;;;;;8.00;5.00;;;;;17.71;100.00;102064.94;5056090;28;45270;-78
2022/05/21 00:41:54;;;;;;;;;6.00;6.00;;;;;17.71;100.00;102068.50;5052728;28;45436;-75
2022/05/21 00:44:20;;;;;;;;;5.33;5.33;;;;;17.69;100.00;102059.59;5053720;28;46458;-76
2022/05/21 00:46:48;;;;;;;;;5.00;5.00;;;;;17.71;100.00;102065.84;5038064;28;45458;-76
2022/05/21 00:49:24;;;;;;;;;6.00;6.00;;;;;17.72;100.00;102066.72;5037699;28;45375;-76
2022/05/21 00:52:08;;;;;;;;;6.67;5.00;;;;;17.72;100.00;102066.72;5032095;28;45523;-77
2022/05/21 00:54:36;;;;;;;;;6.00;5.00;;;;;17.72;100.00;102066.72;5053823;28;46322;-76
2022/05/21 00:57:33;;;;;;;;;6.67;5.00;;;;;17.70;100.00;102052.47;5033066;28;45444;-75
2022/05/21 01:00:11;;;;;;;;;5.00;5.00;;;;;17.70;100.00;102052.47;5054882;28;45284;-77
2022/05/21 01:02:50;;;;;;;;;7.00;5.33;;;;;17.68;100.00;102060.47;5053622;28;45482;-76
2022/05/21 01:05:18;;;;;;;;;7.33;5.00;;;;;17.67;100.00;102058.69;5049527;28;46580;-77
2022/05/21 01:07:45;;;;;;;;;7.00;6.00;;;;;17.66;100.00;102059.59;5053167;28;45458;-75
2022/05/21 01:10:12;;;;;;;;;8.33;5.00;;;;;17.65;100.00;102060.47;5053334;28;45310;-76
2022/05/21 01:12:41;;;;;;;;;5.00;5.00;;;;;17.63;100.00;102059.59;5038246;28;45590;-75
2022/05/21 01:15:10;;;;;;;;;7.00;7.00;;;;;17.62;100.00;102056.91;5062325;28;47516;-75
2022/05/21 01:17:36;;;;;;;;;7.67;7.00;;;;;17.60;100.00;102061.38;5052997;28;45411;-75
2022/05/21 01:20:07;;;;;;;;;6.00;5.67;;;;;17.58;100.00;102056.03;5044084;28;45491;-75
2022/05/21 01:22:45;;;;;;;;;8.00;6.33;;;;;17.57;100.00;102048.88;5044288;28;45567;-76
2022/05/21 01:25:12;;;;;;;;;7.00;7.00;;;;;17.54;100.00;102049.78;5061965;28;46619;-75
2022/05/21 01:27:38;;;;;;;;;8.00;4.00;;;;;17.53;100.00;102049.78;5061683;28;45515;-75
2022/05/21 01:30:06;;;;;;;;;9.33;8.00;;;;;17.54;100.00;102059.56;5040922;28;45494;-75
2022/05/21 01:32:32;;;;;;;;;7.00;5.67;;;;;17.54;100.00;102051.56;5059762;28;45486;-75
2022/05/21 01:34:57;;;;;;;;;5.00;5.00;;;;;17.54;100.00;102054.25;5061324;28;65075;-75
2022/05/21 01:37:23;;;;;;;;;10.67;8.33;;;;;17.53;100.00;102044.44;5055118;28;45460;-76
2022/05/21 01:39:49;;;;;;;;;8.00;6.67;;;;;17.54;100.00;102056.91;5057683;28;45458;-77
2022/05/21 01:42:14;;;;;;;;;6.33;5.33;;;;;17.52;100.00;102053.31;5055129;28;45495;-78
2022/05/21 01:44:40;;;;;;;;;5.00;5.00;;;;;17.52;100.00;102059.59;5061443;28;56645;-78
2022/05/21 01:47:12;;;;;;;;;6.33;6.33;;;;;17.54;100.00;102051.56;5057054;28;45462;-78
2022/05/21 01:49:39;;;;;;;;;9.00;6.00;;;;;17.54;100.00;102048.91;5061463;28;45533;-76
2022/05/21 01:52:06;;;;;;;;;6.67;5.00;;;;;17.55;100.00;102048.88;5061826;28;45442;-75
2022/05/21 01:54:32;;;;;;;;;7.00;4.00;;;;;17.58;100.00;102048.03;5057802;28;47351;-76
2022/05/21 01:56:58;;;;;;;;;5.00;5.00;;;;;17.58;100.00;102049.78;5053866;28;45535;-76
2022/05/21 01:59:23;;;;;;;;;7.33;5.00;;;;;17.60;100.00;102051.56;5037671;28;45267;-75
2022/05/21 02:01:49;;;;;;;;;9.00;5.00;;;;;17.60;100.00;102048.00;5051344;28;45374;-75
2022/05/21 02:04:16;;;;;;;;;4.00;4.00;;;;;17.60;100.00;102046.22;5040976;28;47349;-76
2022/05/21 02:06:42;;;;;;;;;6.00;5.00;;;;;17.60;100.00;102043.56;5021713;28;45532;-75
2022/05/21 02:09:08;;;;;;;;;5.00;5.00;;;;;17.63;100.00;102040.91;5034039;28;46135;-76
2022/05/21 02:11:33;;;;;;;;;5.00;5.00;;;;;17.63;100.00;102046.25;5032990;28;45362;-78
2022/05/21 02:13:59;;;;;;;;;4.33;3.00;;;;;17.62;100.00;102048.91;5040292;28;46657;-75
2022/05/21 02:16:24;;;;;;;;;3.00;3.00;;;;;17.61;100.00;102042.66;5040687;28;55116;-76
2022/05/21 02:18:49;;;;;;;;;5.00;5.00;;;;;17.61;100.00;102048.00;5040888;28;53914;-78
2022/05/21 02:21:15;;;;;;;;;5.00;4.00;;;;;17.61;100.00;102045.34;5035593;28;45369;-76
2022/05/21 02:23:40;;;;;;;;;4.00;4.00;;;;;17.60;100.00;102051.56;5038654;28;46234;-78
2022/05/21 02:26:06;;;;;;;;;4.00;4.00;;;;;17.61;100.00;102068.50;5034110;28;47894;-78
2022/05/21 02:28:31;;;;;;;;;3.67;3.67;;;;;17.58;100.00;102057.78;5032935;28;45287;-75
2022/05/21 02:30:56;;;;;;;;;3.00;3.00;;;;;17.60;100.00;102048.00;5035781;28;45469;-75
2022/05/21 02:33:22;;;;;;;;;4.00;4.00;;;;;17.60;100.00;102048.91;5038326;28;47657;-76
2022/05/21 02:35:47;;;;;;;;;7.00;3.00;;;;;17.58;100.00;102057.78;5037042;28;58718;-76
2022/05/21 02:40:56;;;;;;;;;3.33;3.00;;;;;17.57;100.00;102046.22;5032227;28;45607;-79
2022/05/21 02:43:22;;;;;;;;;5.67;4.33;;;;;17.56;100.00;102055.13;5037281;28;53076;-75
2022/05/21 02:45:47;;;;;;;;;5.33;4.00;;;;;17.54;100.00;102051.56;5035214;28;61143;-78
2022/05/21 02:48:12;;;;;;;;;4.00;3.00;;;;;17.53;100.00;102049.78;5037092;28;45486;-75
2022/05/21 02:50:38;;;;;;;;;4.67;4.67;;;;;17.50;100.00;102045.31;5037640;28;52207;-78
2022/05/21 02:53:07;;;;;;;;;6.00;5.00;;;;;17.53;100.00;102049.78;5035175;28;46784;-77
2022/05/21 02:55:32;;;;;;;;;7.33;4.33;;;;;17.51;100.00;102054.22;5030858;28;45336;-75
2022/05/21 02:57:58;;;;;;;;;5.33;5.00;;;;;17.49;100.00;102048.88;5003511;28;45475;-77
2022/05/21 03:00:26;;;;;;;;;5.67;4.00;;;;;17.49;100.00;102048.88;5036704;28;60226;-76
2022/05/21 03:02:52;;;;;;;;;3.00;3.00;;;;;17.45;100.00;102057.78;5055403;28;46626;-77
2022/05/21 03:05:18;;;;;;;;;7.00;4.00;;;;;17.45;100.00;102052.44;5038750;28;45499;-76
2022/05/21 03:07:46;;;;;;;;;4.00;4.00;;;;;17.44;100.00;102057.78;5049367;28;45440;-77
2022/05/21 03:10:23;;;;;;;;;8.00;4.00;;;;;17.42;100.00;102049.78;5053132;28;45406;-76
2022/05/21 03:13:14;;;;;;;;;5.33;4.00;;;;;17.42;100.00;102057.78;5054097;28;47408;-75
2022/05/21 03:15:40;;;;;;;;;5.00;5.00;;;;;17.46;100.00;102055.97;5052104;28;51486;-75
2022/05/21 03:18:10;;;;;;;;;6.00;2.67;;;;;17.49;100.00;102053.34;5033452;28;45533;-76
2022/05/21 03:20:36;;;;;;;;;4.00;4.00;;;;;17.52;100.00;102047.97;5057419;28;45482;-76
2022/05/21 03:23:01;;;;;;;;;3.33;3.00;;;;;17.56;100.00;102052.44;5055889;28;47462;-75
2022/05/21 03:25:27;;;;;;;;;3.00;3.00;;;;;17.60;100.00;102050.69;5050893;28;45645;-75
2022/05/21 03:27:52;;;;;;;;;4.67;3.67;;;;;17.60;100.00;102056.91;5056800;28;45217;-75
2022/05/21 03:30:21;;;;;;;;;6.33;5.00;;;;;17.60;100.00;102056.91;5050888;28;45496;-75
2022/05/21 03:32:46;;;;;;;;;3.00;3.00;;;;;17.62;100.00;102060.47;5056997;28;46594;-78
2022/05/21 03:35:13;;;;;;;;;5.00;3.00;;;;;17.65;100.00;102060.47;5056777;28;56856;-76
2022/05/21 03:37:39;;;;;;;;;1.67;1.00;;;;;17.68;100.00;102063.13;5054976;28;45329;-78
2022/05/21 03:40:06;;;;;;;;;6.00;3.33;;;;;17.69;100.00;102051.59;5056388;28;45376;-77
2022/05/21 03:42:32;;;;;;;;;4.00;3.00;;;;;17.71;100.00;102060.50;5054089;28;47652;-75
2022/05/21 03:44:57;;;;;;;;;2.00;2.00;;;;;17.70;100.00;102056.03;5054654;28;45319;-77
2022/05/21 03:47:22;;;;;;;;;2.33;2.33;;;;;17.72;100.00;102054.28;5054212;28;45270;-76
2022/05/21 03:49:48;;;;;;;;;4.00;2.33;;;;;17.76;100.00;102053.41;5053485;28;45527;-78
2022/05/21 03:52:13;;;;;;;;;3.33;1.33;;;;;17.76;100.00;102056.06;5054350;28;62466;-75
2022/05/21 03:54:38;;;;;;;;;1.67;1.67;;;;;17.75;100.00;102056.97;5055263;28;57442;-77
2022/05/21 03:57:04;;;;;;;;;1.67;1.67;;;;;17.74;100.00;102065.88;5056351;28;48576;-78
2022/05/21 03:59:30;;;;;;;;;2.33;2.33;;;;;17.74;100.00;102060.53;5055569;28;45687;-77
2022/05/21 04:01:55;;;;;;;;;3.00;3.00;;;;;17.73;100.00;102060.50;5045719;28;46722;-76
2022/05/21 04:04:21;;;;;;;;;2.33;2.33;;;;;17.71;100.00;102055.16;5034499;28;59118;-77
2022/05/21 04:06:46;;;;;;;;;6.33;5.00;;;;;17.73;100.00;102072.09;5030474;28;59257;-78
2022/05/21 04:09:11;;;;;;;;;5.00;4.67;;;;;17.75;100.00;102061.44;5035063;28;53461;-76
2022/05/21 04:11:37;;;;;;;;;10.67;8.33;;;;;17.77;100.00;102063.19;5036221;28;46378;-76
2022/05/21 04:14:02;;;;;;;;;11.33;9.00;;;;;17.74;100.00;102063.22;5036161;28;61832;-79
2022/05/21 04:16:28;;;;;;;;;14.00;11.00;;;;;17.73;100.00;102060.50;5036227;28;48202;-76
2022/05/21 04:18:53;;;;;;;;;11.00;11.00;;;;;17.72;100.00;102070.31;5035749;28;45451;-75
2022/05/21 04:21:19;;;;;;;;;13.67;10.67;;;;;17.72;100.00;102070.31;5035936;28;47539;-79
2022/05/21 04:23:44;;;;;;;;;10.33;5.00;;;;;17.73;100.00;102072.09;5036606;28;45465;-77
2022/05/21 04:26:10;;;;;;;;;11.67;10.00;;;;;17.72;100.00;102064.97;5036541;28;46023;-78
2022/05/21 04:28:35;;;;;;;;;9.00;7.33;;;;;17.74;100.00;102067.66;5036582;28;45464;-76
2022/05/21 04:31:00;;;;;;;;;11.00;11.00;;;;;17.75;100.00;102075.66;5036057;28;55383;-76
2022/05/21 04:33:26;;;;;;;;;10.67;8.00;;;;;17.77;100.00;102071.22;5035799;28;61690;-75
2022/05/21 04:38:35;;;;;;;;;9.00;7.00;;;;;17.84;100.00;102061.41;5036463;28;45464;-75
2022/05/21 04:41:01;;;;;;;;;10.00;5.00;;;;;17.84;100.00;102061.41;5035714;28;61616;-75
2022/05/21 04:43:27;;;;;;;;;5.00;3.33;;;;;17.86;100.00;102070.34;5036496;28;45487;-75
2022/05/21 04:45:55;;;;;;;;;6.67;3.00;;;;;17.84;100.00;102056.06;5035597;28;45703;-78
2022/05/21 04:48:20;;;;;;;;;3.67;3.67;;;;;17.85;100.00;102068.56;5035475;28;45535;-75
2022/05/21 04:50:46;;;;;;;;;4.00;3.00;;;;;17.84;100.00;102060.53;5035916;28;45544;-78
2022/05/21 04:53:11;;;;;;;;;3.67;3.00;;;;;17.82;100.00;102054.31;5035386;28;60066;-76
2022/05/21 04:55:36;;;;;;;;;3.67;3.00;;;;;17.78;100.00;102056.97;5036235;28;45712;-75
2022/05/21 04:58:02;;;;;;;;;6.00;3.00;;;;;17.74;100.00;102052.53;5036011;28;45331;-76
2022/05/21 05:00:28;;;;;;;;;4.33;2.00;;;;;17.72;100.00;102059.63;5018314;28;45993;-75
2022/05/21 05:02:53;;;;;;;;;3.33;3.33;;;;;17.71;100.00;102063.16;5034993;28;45360;-76
2022/05/21 05:05:18;;;;;;;;;2.67;2.33;;;;;17.70;100.00;102064.06;5034846;28;52209;-77
2022/05/21 05:07:44;;;;;;;;;5.67;4.33;;;;;17.69;100.00;102058.72;5033274;28;45272;-75
2022/05/21 05:10:10;;;;;;;;;5.00;4.00;;;;;17.68;100.00;102065.81;5028744;28;62898;-76
2022/05/21 05:12:35;;;;;;;;;7.67;3.67;;;;;17.68;100.00;102060.47;5031854;28;59579;-75
2022/05/21 05:15:01;;;;;;;;;3.33;3.00;;;;;17.67;100.00;102057.81;5031012;28;45531;-76
2022/05/21 05:17:27;;;;;;;;;4.00;4.00;;;;;17.68;100.00;102062.25;5034893;28;45572;-75
2022/05/21 05:19:54;;;;;;;;;7.67;4.00;;;;;17.68;100.00;102063.13;5033580;28;46687;-76
2022/05/21 05:22:20;;;;;;;;;6.00;4.00;;;;;17.68;100.00;102067.59;5034076;28;45447;-78
2022/05/21 05:24:46;;;;;;;;;5.33;4.67;;;;;17.70;100.00;102066.72;5035366;28;45529;-78
2022/05/21 05:27:11;;;;;;;;;5.00;4.33;;;;;17.71;100.00;102057.81;5035155;28;45535;-76
2022/05/21 05:29:37;;;;;;;;;6.33;5.00;;;;;17.72;100.00;102056.94;5033928;28;60328;-77
2022/05/21 05:32:03;;;;;;;;;5.33;4.00;;;;;17.74;100.00;102054.31;5035102;28;45360;-76
2022/05/21 05:34:28;;;;;;;;;4.00;4.00;;;;;17.75;100.00;102048.06;5034854;28;45539;-76
2022/05/21 05:36:53;;;;;;;;;2.00;2.00;;;;;17.75;100.00;102040.94;5034566;28;48650;-77
2022/05/21 05:39:19;;;;;;;;;6.00;3.67;;;;;17.77;100.00;102051.63;5034042;28;45733;-76
2022/05/21 05:41:44;;;;;;;;;5.33;4.00;;;;;17.77;100.00;102051.63;5016215;28;48659;-76
2022/05/21 05:44:09;;;;;;;;;3.00;3.00;;;;;17.80;100.00;102054.31;5035026;28;45412;-77
2022/05/21 05:46:35;;;;;;;;;6.00;4.33;;;;;17.80;100.00;102054.31;5034172;28;45558;-78
2022/05/21 05:49:01;;;;;;;;;3.67;3.67;;;;;17.83;100.00;102054.28;5033340;28;47172;-77
2022/05/21 05:51:27;;;;;;;;;3.00;3.00;;;;;17.84;100.00;102052.50;5035101;28;45461;-77
2022/05/21 05:53:52;;;;;;;;;2.67;2.33;;;;;17.86;100.00;102054.31;5035285;28;45427;-77
2022/05/21 05:56:18;;;;;;;;;4.67;3.00;;;;;17.86;100.00;102053.41;5035770;28;45411;-77
2022/05/21 06:01:27;;;;;;;;;4.00;3.00;;;;;17.96;100.00;102060.56;5041753;28;45456;-78
2022/05/21 06:03:53;;;;;;;;;4.33;4.33;;;;;18.01;100.00;102061.44;5057513;28;45238;-77
2022/05/21 06:06:20;;;;;;;;;5.67;3.00;;;;;18.05;100.00;102061.41;5058831;28;45458;-76
2022/05/21 06:08:46;;;;;;;;;4.00;2.33;;;;;18.10;100.00;102065.88;5055989;28;46501;-76
2022/05/21 06:11:12;;;;;;;;;7.00;3.00;;;;;18.13;100.00;102058.75;5053921;28;45519;-80
2022/05/21 06:13:38;;;;;;;;;5.00;4.00;;;;;18.18;100.00;102066.78;5053416;28;45363;-77
2022/05/21 06:16:04;;;;;;;;;6.00;3.00;;;;;18.27;100.00;102066.78;5048386;28;46023;-76
2022/05/21 06:18:29;;;;;;;;;5.67;3.33;;;;;18.37;100.00;102063.16;5057922;28;47589;-78
2022/05/21 06:21:01;;;;;;;;;5.00;4.00;;;;;18.38;100.00;102070.34;5057091;28;62615;-77
2022/05/21 06:23:26;;;;;;;;;6.67;5.33;;;;;18.30;100.00;102059.63;5058192;28;45459;-78
2022/05/21 06:25:52;;;;;;;;;6.00;4.00;;;;;18.27;100.00;102073.00;5056535;28;45665;-77
2022/05/21 06:28:17;;;;;;;;;4.67;4.00;;;;;18.25;100.00;102066.75;5056629;28;47554;-78
2022/05/21 06:30:44;;;;;;;;;5.67;5.00;;;;;18.25;100.00;102064.09;5057102;28;57534;-77
2022/05/21 06:33:17;;;;;;;;;4.00;4.00;;;;;18.24;100.00;102064.09;5054920;28;45250;-78
2022/05/21 06:35:43;;;;;;;;;6.67;2.33;;;;;18.23;100.00;102065.88;5055206;28;45496;-78
2022/05/21 06:38:08;;;;;;;;;3.33;3.33;;;;;18.23;100.00;102062.31;5057608;28;46239;-78
2022/05/21 06:40:34;;;;;;;;;3.00;3.00;;;;;18.22;100.00;102065.91;5053845;28;45234;-78
2022/05/21 06:43:00;;;;;;;;;6.33;3.00;;;;;18.25;100.00;102065.88;5056646;28;45462;-78
2022/05/21 06:45:28;;;;;;;;;5.00;4.00;;;;;18.26;100.00;102063.19;5058362;28;45483;-79
2022/05/21 06:47:54;;;;;;;;;4.00;4.00;;;;;18.27;100.00;102070.34;5034059;28;46354;-78
2022/05/21 06:50:19;;;;;;;;;6.67;5.67;;;;;18.27;100.00;102070.34;5057989;28;45277;-79
2022/05/21 06:52:45;;;;;;;;;8.00;5.33;;;;;18.29;100.00;102071.22;5035292;28;45416;-78
2022/05/21 06:55:10;;;;;;;;;4.67;4.33;;;;;18.25;100.00;102069.44;5057728;28;45202;-78
2022/05/21 06:57:35;;;;;;;;;6.00;4.00;;;;;18.30;100.00;102070.31;5055758;28;47342;-78
2022/05/21 07:00:01;;;;;;;;;5.67;4.33;;;;;18.32;100.00;102070.31;5055010;28;47566;-78
2022/05/21 07:02:26;;;;;;;;;2.67;2.67;;;;;18.36;100.00;102068.53;5037994;28;45543;-78
2022/05/21 07:07:43;;;;;;;;;1.67;1.67;;;;;18.38;100.00;102061.41;5037563;28;45515;-78
2022/05/21 07:10:17;;;;;;;;;3.00;2.00;;;;;18.42;100.00;102073.88;5035950;28;45497;-79
2022/05/21 07:12:43;;;;;;;;;2.67;2.00;;;;;18.49;100.00;102073.88;5037210;28;45398;-78
2022/05/21 07:15:09;;;;;;;;;4.00;2.33;;;;;18.51;100.00;102072.06;5036639;28;45209;-79
2022/05/21 07:17:34;;;;;;;;;5.67;3.00;;;;;18.54;100.00;102073.88;5037620;28;46455;-78
2022/05/21 07:20:05;;;;;;;;;4.00;2.67;;;;;18.54;100.00;102073.88;5036640;28;55714;-78
2022/05/21 07:22:30;;;;;;;;;3.00;3.00;;;;;18.54;100.00;102072.06;5037487;28;45280;-78
2022/05/21 07:24:56;;;;;;;;;4.00;2.00;;;;;18.61;100.00;102070.28;5030289;28;45682;-79
2022/05/21 07:27:23;;;;;;;;;4.33;3.00;;;;;18.65;100.00;102069.38;5036233;28;47272;-78
2022/05/21 07:29:48;;;;;;;;;2.00;2.00;;;;;18.69;100.00;102065.81;5027901;28;45526;-79
2022/05/21 07:32:19;;;;;;;;;7.00;3.00;;;;;18.73;100.00;102078.28;5035967;28;45468;-78
2022/05/21 07:34:45;;;;;;;;;2.67;1.33;;;;;18.76;100.00;102080.09;5033779;28;45523;-78
2022/05/21 07:37:10;;;;;;;;;1.00;1.00;;;;;18.80;100.00;102074.72;5036295;28;47133;-78
2022/05/21 07:39:35;;;;;;;;;2.33;0.33;;;;;18.85;100.00;102066.66;5034199;28;45567;-78
2022/05/21 07:42:01;;;;;;;;;2.33;0.67;;;;;18.84;100.00;102065.75;5035302;28;45567;-78
2022/05/21 07:44:26;;;;;;;;;2.00;1.00;;;;;18.90;100.00;102064.84;5023537;28;45603;-77
2022/05/21 07:46:52;;;;;;;;;1.00;1.00;;;;;18.98;100.00;102062.16;5036312;28;49623;-78
2022/05/21 07:49:17;;;;;;;;;5.67;1.00;;;;;19.04;100.00;102065.69;5030941;28;58647;-78
2022/05/21 07:51:42;;;;;;;;;2.33;1.67;;;;;19.08;100.00;102063.91;5031048;28;45903;-77
2022/05/21 07:54:08;;;;;;;;;1.00;1.00;;;;;19.09;100.00;102060.31;5037147;28;45319;-78
2022/05/21 07:56:33;;;;;;;;;0.33;0.33;;;;;19.11;100.00;102064.75;5034276;28;59140;-77
2022/05/21 07:58:59;;;;;;;;;0.67;0.67;;;;;19.19;100.00;102058.50;5030172;28;45566;-77
2022/05/21 08:01:24;;;;;;;;;0.33;0.33;;;;;19.27;100.00;102070.03;5036519;28;45596;-77
2022/05/21 08:03:50;;;;;;;;;2.67;0.33;;;;;19.33;100.00;102059.28;5029085;28;45828;-77
2022/05/21 08:06:16;;;;;;;;;0.67;0.67;;;;;19.39;100.00;102061.97;5035150;28;46372;-77
2022/05/21 08:08:41;;;;;;;;;12.00;8.33;;;;;19.43;100.00;102061.03;5021008;28;45410;-77
2022/05/21 08:11:07;;;;;;;;;6.00;2.00;;;;;19.47;100.00;102059.22;5000172;28;45415;-77
2022/05/21 08:13:34;;;;;;;;;2.67;1.67;;;;;19.44;100.00;102053.88;5026425;28;45381;-74
2022/05/21 08:16:00;;;;;;;;;1.67;1.67;;;;;19.48;100.00;102064.56;5035592;28;46333;-75
2022/05/21 08:18:27;;;;;;;;;3.67;3.67;;;;;19.55;100.00;102065.44;5034882;28;45340;-76
2022/05/21 08:20:54;;;;;;;;;1.00;1.00;;;;;19.55;100.00;102060.09;5025037;28;45547;-77
2022/05/21 08:28:48;;;;;;;;;0.00;0.00;;;;;19.64;100.00;102049.31;5030708;28;45352;-77
2022/05/21 08:31:14;;;;;;;;;1.00;1.00;;;;;19.64;100.00;102046.63;5031578;28;45320;-73
2022/05/21 08:33:40;;;;;;;;;3.00;2.00;;;;;19.66;100.00;102055.56;5032000;28;45558;-79
2022/05/21 08:36:05;;;;;;;;;1.00;1.00;;;;;19.67;100.00;102043.06;5012042;28;46285;-79
2022/05/21 08:38:31;;;;;;;;;1.67;1.67;;;;;19.72;100.00;102046.59;5016819;28;45528;-75
2022/05/21 08:41:25;;;;;;;;;1.00;0.33;;;;;19.72;100.00;102051.97;5028979;28;51692;-75
2022/05/21 08:44:16;;;;;;;;;3.67;1.00;;;;;19.76;100.00;102046.56;5010268;28;45492;-80
2022/05/21 08:46:47;;;;;;;;;3.00;1.00;;;;;19.80;100.00;102045.63;5006600;28;46491;-77
2022/05/21 08:49:19;;;;;;;;;4.00;1.00;;;;;19.86;100.00;102039.31;5031589;28;45485;-74
2022/05/21 08:51:50;;;;;;;;;1.00;1.00;;;;;19.93;100.00;102045.53;5034853;28;45293;-72
2022/05/21 08:54:22;;;;;;;;;0.67;0.67;;;;;19.97;100.00;102044.59;5014942;28;45532;-73
2022/05/21 08:56:48;;;;;;;;;3.00;1.00;;;;;19.98;100.00;102049.97;5017467;28;46423;-73
2022/05/21 08:59:16;;;;;;;;;4.00;2.00;;;;;20.01;100.00;102041.00;5015793;28;60961;-74
2022/05/21 09:01:44;;;;;;;;;2.33;1.00;;;;;20.03;100.00;102033.84;5188578;23;46068;-74
2022/05/21 09:04:12;;;;;;;;;2.67;2.00;;;;;20.05;100.00;102035.59;4976834;28;45590;-73
2022/05/21 09:06:54;;;;;;;;;3.67;1.67;;;;;20.09;100.00;102039.16;4985018;28;46542;-72
2022/05/21 09:09:48;;;;;;;;;2.00;1.00;;;;;20.14;100.00;102029.25;4980981;28;45485;-74
2022/05/21 09:12:19;;;;;;;;;6.00;2.00;;;;;20.19;100.00;102034.56;4960524;28;45525;-74
2022/05/21 09:14:47;;;;;;;;;2.67;1.33;;;;;20.25;100.00;102021.13;4974361;28;45482;-73
2022/05/21 09:17:21;;;;;;;;;4.00;1.00;;;;;20.30;100.00;102030.88;4976381;28;47606;-73
2022/05/21 09:19:49;;;;;;;;;4.00;2.00;;;;;20.38;100.00;102012.91;4973690;28;45540;-74
2022/05/21 09:22:18;;;;;;;;;3.00;1.33;;;;;20.37;100.00;102016.50;4976564;28;45402;-74
2022/05/21 09:24:49;;;;;;;;;1.00;1.00;;;;;20.38;100.00;102017.38;4976626;28;45331;-75
2022/05/21 09:27:41;;;;;;;;;4.00;1.00;;;;;20.37;100.00;102018.28;4976774;28;46518;-74
2022/05/21 09:30:15;;;;;;;;;2.00;2.00;;;;;20.41;100.00;102006.63;4981323;28;45677;-73
2022/05/21 09:32:44;;;;;;;;;2.33;1.33;;;;;20.43;100.00;102004.81;4994383;28;45607;-73
2022/05/21 09:35:15;;;;;;;;;2.67;2.00;;;;;20.47;100.00;101994.97;4997935;28;45512;-73
2022/05/21 09:37:42;;;;;;;;;1.67;1.67;;;;;20.51;100.00;101999.41;5004852;28;46465;-73
2022/05/21 09:40:29;;;;;;;;;3.00;1.00;;;;;20.53;100.00;102001.16;5002083;28;45559;-73
2022/05/21 09:45:40;;;;;;;;;2.00;1.00;;;;;20.61;100.00;101990.31;4998280;28;45571;-73
2022/05/21 09:48:05;;;;;;;;;8.00;2.00;;;;;20.66;100.00;102001.88;4980907;28;46758;-75
2022/05/21 09:50:42;;;;;;;;;2.00;2.00;;;;;20.73;100.00;102000.03;5002207;28;45534;-74
2022/05/21 09:53:28;;;;;;;;;3.67;2.00;;;;;20.76;100.00;101998.19;4994622;28;45399;-74
2022/05/21 09:56:02;;;;;;;;;5.67;3.00;;;;;20.83;100.00;101993.66;4999287;28;45488;-73
2022/05/21 09:58:34;;;;;;;;;1.33;1.33;;;;;20.89;100.00;101986.41;4999569;28;47444;-74
2022/05/21 10:01:00;;;;;;;;;4.33;2.00;;;;;20.93;100.00;101979.16;5000618;28;45276;-72
2022/05/21 10:03:36;;;;;;;;;3.00;3.00;;;;;20.97;100.00;101972.84;5001970;28;45291;-74
2022/05/21 10:06:05;;;;;;;;;2.00;2.00;;;;;21.03;100.00;101970.06;5005235;28;45597;-72
2022/05/21 10:11:28;;;;;;;;;2.00;2.00;;;;;21.17;100.00;101983.31;4993076;28;47270;-73
2022/05/21 10:14:03;;;;;;;;;5.00;2.00;;;;;21.21;100.00;101982.38;4985581;28;45485;-74
2022/05/21 10:16:39;;;;;;;;;6.33;2.00;;;;;21.24;100.00;101979.63;4999077;28;45469;-74
2022/05/21 10:19:12;;;;;;;;;4.00;2.00;;;;;21.31;100.00;101973.31;4982717;28;47608;-73
2022/05/21 10:21:47;;;;;;;;;3.00;2.00;;;;;21.39;100.00;101971.38;4999488;28;45365;-74
2022/05/21 10:24:20;;;;;;;;;3.33;2.00;;;;;21.46;100.00;101972.16;5004370;28;45484;-74
2022/05/21 10:27:20;;;;;;;;;2.67;2.00;;;;;21.50;100.00;101971.19;4981205;28;45538;-76
2022/05/21 10:29:54;;;;;;;;;1.00;1.00;;;;;21.53;100.00;101972.97;4980080;28;46393;-74
2022/05/21 10:32:25;;;;;;;;;2.67;2.00;;;;;21.56;100.00;101978.25;4996979;28;45445;-74
2022/05/21 10:34:50;;;;;;;;;1.00;1.00;;;;;21.57;100.00;101972.88;5002091;28;45629;-73
2022/05/21 10:37:34;;;;;;;;;2.00;2.00;;;;;21.61;100.00;101979.09;4997208;28;45448;-75
2022/05/21 10:40:14;;;;;;;;;1.00;1.00;;;;;21.65;100.00;101970.06;4997383;28;46429;-74
2022/05/21 10:42:42;;;;;;;;;2.00;2.00;;;;;21.70;100.00;101968.19;4999260;28;45470;-75
2022/05/21 10:45:25;;;;;;;;;3.00;2.00;;;;;21.75;100.00;101970.81;4995285;28;45421;-75
2022/05/21 10:48:43;;;;;;;;;1.00;1.00;;;;;21.76;100.00;101962.69;4996114;28;45466;-74
2022/05/21 10:51:11;;;;;;;;;2.00;2.00;;;;;21.81;100.00;101962.63;4956385;28;47649;-74
2022/05/21 10:53:48;;;;;;;;;4.00;2.00;;;;;21.86;100.00;101963.44;4937791;28;45630;-74
2022/05/21 10:56:45;;;;;;;;;5.00;3.00;;;;;21.85;100.00;101958.97;4977765;28;46461;-74
2022/05/21 10:59:47;;;;;;;;;4.00;2.00;;;;;21.91;100.00;101958.84;5005372;28;45516;-75
2022/05/21 11:02:48;;;;;;;;;5.00;2.00;;;;;21.98;100.00;101942.56;5013769;28;46535;-74
2022/05/21 11:05:31;;;;;;;;;3.67;3.00;;;;;22.11;100.00;101942.38;4991333;28;45556;-73
2022/05/21 11:08:22;;;;;;;;;2.00;2.00;;;;;22.20;100.00;101942.19;5003939;28;45381;-73
2022/05/21 11:11:21;;;;;;;;;2.33;2.33;;;;;22.29;100.00;101931.25;4979551;28;45486;-75
2022/05/21 11:14:03;;;;;;;;;3.33;2.00;;;;;22.34;100.00;101937.44;5002053;28;46827;-73
2022/05/21 11:16:51;;;;;;;;;2.00;2.00;;;;;22.43;100.00;101936.38;4998522;28;45423;-74
2022/05/21 11:19:58;;;;;;;;;3.00;2.67;;;;;22.59;100.00;101918.97;5004748;28;45268;-73
2022/05/21 11:22:34;;;;;;;;;3.00;3.00;;;;;22.76;100.00;101926.69;4980735;28;45528;-73
2022/05/21 11:25:17;;;;;;;;;3.00;1.00;;;;;22.85;100.00;101915.72;4977851;28;47070;-73
2022/05/21 11:28:26;;;;;;;;;3.00;1.67;;;;;22.96;100.00;101921.78;4997378;28;45534;-74
2022/05/21 11:30:58;;;;;;;;;3.00;2.00;;;;;23.07;100.00;101923.31;4948954;28;45558;-73
2022/05/21 11:37:20;;;;;;;;;3.67;3.00;;;;;23.26;100.00;101908.47;4977627;28;45724;-74
2022/05/21 11:39:06;;;;;;;;;2.00;2.00;;;;;23.34;100.00;101908.31;4981205;28;45532;-74
2022/05/21 11:41:54;;;;;;;;;4.00;2.67;;;;;23.29;98.74;101902.13;4973802;28;45481;-73
2022/05/21 11:47:06;;;;;;;;;1.00;1.00;;;;;23.46;100.00;101900.78;4995700;28;45530;-74
2022/05/21 11:49:36;;;;;;;;;4.00;2.33;;;;;23.55;99.64;101901.47;4996957;28;45417;-75
2022/05/21 11:52:26;;;;;;;;;3.00;3.00;;;;;23.68;99.95;101889.47;4980264;28;45434;-76
2022/05/21 11:54:51;;;;;;;;;1.67;1.67;;;;;23.79;98.18;101884.66;5001215;28;45553;-75